sensor_id;sensor_type;location;lat;lon;timestamp;P1;durP1;ratioP1;P2;durP2;ratioP2
7585;SDS011;12459;42.646;23.292;2023-10-19T00:07:50;11.87;;;11.27;;
7585;SDS011;12459;42.646;23.292;2023-10-19T00:22:54;12.07;;;11.47;;
7585;SDS011;12459;42.646;23.292;2023-10-19T00:37:56;13.53;;;12.83;;
7585;SDS011;12459;42.646;23.292;2023-10-19T00:53:18;12.83;;;12.13;;
7585;SDS011;12459;42.646;23.292;2023-10-19T01:08:20;13.17;;;12.47;;
7585;SDS011;12459;42.646;23.292;2023-10-19T01:23:25;11.27;;;10.67;;
7585;SDS011;12459;42.646;23.292;2023-10-19T01:38:27;12.93;;;12.23;;
7585;SDS011;12459;42.646;23.292;2023-10-19T01:53:35;12.20;;;11.60;;
7585;SDS011;12459;42.646;23.292;2023-10-19T02:08:37;13.00;;;12.30;;
7585;SDS011;12459;42.646;23.292;2023-10-19T02:23:42;11.57;;;10.97;;
7585;SDS011;12459;42.646;23.292;2023-10-19T02:38:44;11.33;;;10.73;;
7585;SDS011;12459;42.646;23.292;2023-10-19T02:53:50;13.73;;;13.03;;
7585;SDS011;12459;42.646;23.292;2023-10-19T03:08:52;12.60;;;11.90;;
7585;SDS011;12459;42.646;23.292;2023-10-19T03:23:59;13.07;;;12.37;;
7585;SDS011;12459;42.646;23.292;2023-10-19T03:39:21;12.53;;;11.87;;
7585;SDS011;12459;42.646;23.292;2023-10-19T03:54:26;11.17;;;10.57;;
7585;SDS011;12459;42.646;23.292;2023-10-19T04:09:28;10.33;;;9.73;;
7585;SDS011;12459;42.646;23.292;2023-10-19T04:24:30;11.07;;;10.47;;
7585;SDS011;12459;42.646;23.292;2023-10-19T04:39:34;10.47;;;9.87;;
7585;SDS011;12459;42.646;23.292;2023-10-19T04:54:37;11.00;;;10.40;;
7585;SDS011;12459;42.646;23.292;2023-10-19T05:09:39;11.13;;;10.53;;
7585;SDS011;12459;42.646;23.292;2023-10-19T05:24:41;12.37;;;11.73;;
7585;SDS011;12459;42.646;23.292;2023-10-19T05:39:43;10.57;;;9.97;;
7585;SDS011;12459;42.646;23.292;2023-10-19T05:54:45;11.23;;;10.63;;
7585;SDS011;12459;42.646;23.292;2023-10-19T06:09:47;12.73;;;12.03;;
7585;SDS011;12459;42.646;23.292;2023-10-19T06:24:49;13.33;;;12.63;;
7585;SDS011;12459;42.646;23.292;2023-10-19T06:39:51;14.33;;;13.63;;
7585;SDS011;12459;42.646;23.292;2023-10-19T06:54:52;16.43;;;15.63;;
7585;SDS011;12459;42.646;23.292;2023-10-19T07:09:54;17.43;;;16.57;;
7585;SDS011;12459;42.646;23.292;2023-10-19T07:24:56;17.17;;;16.30;;
7585;SDS011;12459;42.646;23.292;2023-10-19T07:39:57;18.77;;;17.87;;
7585;SDS011;12459;42.646;23.292;2023-10-19T07:54:59;17.60;;;16.70;;
7585;SDS011;12459;42.646;23.292;2023-10-19T08:10:01;19.53;;;18.57;;
7585;SDS011;12459;42.646;23.292;2023-10-19T08:25:04;22.00;;;20.90;;
7585;SDS011;12459;42.646;23.292;2023-10-19T08:40:07;20.00;;;19.00;;
7585;SDS011;12459;42.646;23.292;2023-10-19T08:55:15;21.60;;;20.57;;
7585;SDS011;12459;42.646;23.292;2023-10-19T09:10:17;23.83;;;22.73;;
7585;SDS011;12459;42.646;23.292;2023-10-19T09:25:19;22.37;;;21.27;;
7585;SDS011;12459;42.646;23.292;2023-10-19T09:40:21;25.50;;;24.30;;
7585;SDS011;12459;42.646;23.292;2023-10-19T09:55:29;27.20;;;25.90;;
7585;SDS011;12459;42.646;23.292;2023-10-19T10:10:36;29.10;;;27.70;;
7585;SDS011;12459;42.646;23.292;2023-10-19T10:25:38;33.17;;;31.63;;
7585;SDS011;12459;42.646;23.292;2023-10-19T10:40:47;31.93;;;30.43;;
7585;SDS011;12459;42.646;23.292;2023-10-19T10:55:50;35.70;;;34.07;;
7585;SDS011;12459;42.646;23.292;2023-10-19T11:10:52;36.73;;;35.03;;
7585;SDS011;12459;42.646;23.292;2023-10-19T11:25:58;37.67;;;35.97;;
7585;SDS011;12459;42.646;23.292;2023-10-19T11:41:01;42.07;;;40.13;;
7585;SDS011;12459;42.646;23.292;2023-10-19T11:56:07;44.00;;;42.00;;
7585;SDS011;12459;42.646;23.292;2023-10-19T12:11:10;41.57;;;39.67;;
7585;SDS011;12459;42.646;23.292;2023-10-19T12:41:22;43.57;;;41.57;;
7585;SDS011;12459;42.646;23.292;2023-10-19T12:56:24;46.23;;;44.13;;
7585;SDS011;12459;42.646;23.292;2023-10-19T13:11:30;49.20;;;47.00;;
7585;SDS011;12459;42.646;23.292;2023-10-19T13:26:34;45.07;;;43.00;;
7585;SDS011;12459;42.646;23.292;2023-10-19T13:41:36;45.37;;;43.30;;
7585;SDS011;12459;42.646;23.292;2023-10-19T13:56:38;37.77;;;36.03;;
7585;SDS011;12459;42.646;23.292;2023-10-19T14:11:40;44.17;;;42.17;;
7585;SDS011;12459;42.646;23.292;2023-10-19T14:26:43;44.63;;;42.63;;
7585;SDS011;12459;42.646;23.292;2023-10-19T14:41:47;39.60;;;37.80;;
7585;SDS011;12459;42.646;23.292;2023-10-19T14:56:49;42.03;;;40.13;;
7585;SDS011;12459;42.646;23.292;2023-10-19T15:11:50;38.73;;;36.93;;
7585;SDS011;12459;42.646;23.292;2023-10-19T15:26:52;35.47;;;33.83;;
7585;SDS011;12459;42.646;23.292;2023-10-19T15:41:54;34.90;;;33.30;;
7585;SDS011;12459;42.646;23.292;2023-10-19T15:56:57;31.80;;;30.30;;
7585;SDS011;12459;42.646;23.292;2023-10-19T16:11:59;33.03;;;31.50;;
7585;SDS011;12459;42.646;23.292;2023-10-19T16:27:01;30.13;;;28.73;;
7585;SDS011;12459;42.646;23.292;2023-10-19T16:42:03;32.20;;;30.70;;
7585;SDS011;12459;42.646;23.292;2023-10-19T16:57:05;30.30;;;28.90;;
7585;SDS011;12459;42.646;23.292;2023-10-19T17:12:08;30.53;;;29.10;;
7585;SDS011;12459;42.646;23.292;2023-10-19T17:27:12;30.57;;;29.17;;
7585;SDS011;12459;42.646;23.292;2023-10-19T17:42:14;23.63;;;22.53;;
7585;SDS011;12459;42.646;23.292;2023-10-19T17:57:16;28.67;;;27.33;;
7585;SDS011;12459;42.646;23.292;2023-10-19T18:12:18;27.93;;;26.63;;
7585;SDS011;12459;42.646;23.292;2023-10-19T18:27:20;26.27;;;25.03;;
7585;SDS011;12459;42.646;23.292;2023-10-19T18:42:24;25.77;;;24.57;;
7585;SDS011;12459;42.646;23.292;2023-10-19T18:57:26;26.70;;;25.43;;
7585;SDS011;12459;42.646;23.292;2023-10-19T19:12:28;26.73;;;25.47;;
7585;SDS011;12459;42.646;23.292;2023-10-19T19:27:30;20.03;;;19.03;;
7585;SDS011;12459;42.646;23.292;2023-10-19T19:42:32;28.77;;;27.40;;
7585;SDS011;12459;42.646;23.292;2023-10-19T19:57:34;29.63;;;28.23;;
7585;SDS011;12459;42.646;23.292;2023-10-19T20:12:37;26.20;;;25.00;;
7585;SDS011;12459;42.646;23.292;2023-10-19T20:27:41;27.20;;;25.90;;
7585;SDS011;12459;42.646;23.292;2023-10-19T20:42:43;26.80;;;25.50;;
7585;SDS011;12459;42.646;23.292;2023-10-19T20:57:47;25.33;;;24.13;;
7585;SDS011;12459;42.646;23.292;2023-10-19T21:12:49;23.97;;;22.83;;
7585;SDS011;12459;42.646;23.292;2023-10-19T21:27:51;25.60;;;24.40;;
7585;SDS011;12459;42.646;23.292;2023-10-19T21:42:53;25.77;;;24.57;;
7585;SDS011;12459;42.646;23.292;2023-10-19T21:57:54;25.27;;;24.07;;
7585;SDS011;12459;42.646;23.292;2023-10-19T22:12:56;24.07;;;22.90;;
7585;SDS011;12459;42.646;23.292;2023-10-19T22:27:58;24.17;;;23.00;;
7585;SDS011;12459;42.646;23.292;2023-10-19T22:42:59;23.77;;;22.67;;
7585;SDS011;12459;42.646;23.292;2023-10-19T22:58:02;24.73;;;23.53;;
7585;SDS011;12459;42.646;23.292;2023-10-19T23:13:04;25.40;;;24.20;;
7585;SDS011;12459;42.646;23.292;2023-10-19T23:28:06;23.30;;;22.20;;
7585;SDS011;12459;42.646;23.292;2023-10-19T23:43:13;23.63;;;22.53;;
7585;SDS011;12459;42.646;23.292;2023-10-19T23:58:15;23.27;;;22.17;;
